Madison, New Jersey
Current Conditions -  °F | °C
As of 8:45 PM on Wednesday 22 Oct 2014 (Local Time) from KMMU Reporting Station
Overcast Overcast  
Wind Chill: 54°   Ceiling: 2000
Heat Index: 54°   Visibility: 7mi
Dew Point: 50°   Wind: 17mph
Humidity: 88%   Direction: 10°N
Pressure: 29.81"   Gusts: 29mph
Location:  40.76°N, 74.41°W
Report Text: KMMU 230045Z 01015G25KT 7SM OVC020 12/10 A2981
Loading
Personal Weather Stations






























Interactive Weather Map New forecast layout! Learn more

10-Day Weather Forecast

Advertisements
Track Severe Weather on mobile